Observations for LORIENT LANN BIHOUE, France (LFRH)

LFRH 252200Z AUTO 01003KT CAVOK 11/10 Q1022 BECMG 1500 BR   
LFRH 252130Z AUTO 36004KT CAVOK 11/10 Q1023 BECMG 1500 BR   
LFRH 252100Z AUTO 36004KT CAVOK 12/11 Q1022 BECMG 1500 BR   
LFRH 252030Z AUTO 36003KT CAVOK 12/11 Q1022 BECMG 1500 BR   
LFRH 252000Z AUTO 36005KT CAVOK 13/11 Q1023 BECMG 1500 BR   
LFRH 251930Z AUTO 36005KT CAVOK 14/12 Q1022 BECMG 1500 BR   
LFRH 251900Z AUTO 35004KT CAVOK 14/12 Q1022 NOSIG   
LFRH 251830Z AUTO 35005KT CAVOK 15/13 Q1022 NOSIG   
LFRH 251800Z AUTO 34004KT 330V060 CAVOK 16/13 Q1022 NOSIG   
LFRH 251730Z AUTO 36004KT CAVOK 17/13 Q1022 NOSIG   
LFRH 251700Z AUTO 01006KT 9999 FEW031 18/13 Q1021 NOSIG 
LFRH 251630Z AUTO 35004KT 300V030 9999 FEW037 18/12 Q1021 NOSIG 
LFRH 251600Z AUTO 36008KT 330V030 9999 BKN035 19/13 Q1021 NOSIG 
LFRH 251530Z AUTO 36007KT 310V040 9999 SCT031 19/13 Q1021 NOSIG 
LFRH 251500Z AUTO 35007KT 300V030 9999 BKN031 20/13 Q1021 NOSIG 
LFRH 251430Z AUTO 36007KT 330V040 9999 SCT032 20/13 Q1021 NOSIG 
LFRH 251400Z AUTO 35006KT 320V020 9999 SCT031 BKN037 20/14 Q1021 NOSIG  
LFRH 251330Z AUTO 36006KT 310V040 9999 OVC033 19/14 Q1020 NOSIG 
LFRH 251300Z AUTO 33007KT 300V360 9999 OVC031 19/13 Q1021 NOSIG 
LFRH 251230Z AUTO 36006KT 320V030 9999 BKN028 BKN033 19/13 Q1020 NOSIG  
LFRH 251200Z AUTO 01008KT 330V040 9999 BKN024 19/13 Q1020 NOSIG 
LFRH 251130Z AUTO 34007KT 300V030 9999 BKN023 18/13 Q1020 NOSIG 
LFRH 251100Z AUTO 35007KT 300V030 9999 BKN020 18/14 Q1020 NOSIG 
LFRH 251030Z AUTO 34008KT 300V010 9999 OVC019 17/13 Q1020 NOSIG 
LFRH 251000Z AUTO 34008KT 300V020 9999 OVC020 16/13 Q1020 NOSIG 
LFRH 250930Z AUTO 36008KT 320V030 9999 BKN019 OVC024 16/13 Q1020 NOSIG  
LFRH 250900Z AUTO 33008KT 300V010 9999 SCT012 BKN018 OVC023 15/13 Q1020 NOSIG   
LFRH 250830Z AUTO 34006KT 300V010 9999 BKN009 BKN026 16/14 Q1020 BECMG BKN015   
LFRH 250800Z AUTO 33005KT 300V010 9999 BKN013 BKN027 15/14 Q1019 BECMG BKN015   
LFRH 250730Z AUTO 31004KT 280V340 9999 OVC015 14/14 Q1019 TEMPO BKN007  
LFRH 250700Z AUTO 30004KT 9999 OVC015 14/13 Q1019 TEMPO BKN007  
LFRH 250630Z AUTO 30004KT 9999 BKN011 13/13 Q1019 TEMPO BKN007  
LFRH 250600Z AUTO 30004KT 9999 FEW013 12/12 Q1018 TEMPO BKN007  
LFRH 250530Z AUTO 32004KT CAVOK 13/12 Q1018 NOSIG   
LFRH 250500Z AUTO 33003KT 300V360 CAVOK 13/13 Q1018 BECMG BKN008
LFRH 250430Z AUTO 33004KT 300V360 9999 FEW042 14/13 Q1017 BECMG BKN008  
LFRH 250400Z AUTO 32005KT 290V350 9999 FEW011 BKN042 BKN240 14/14 Q1017 BECMG BKN008
LFRH 250330Z AUTO 33004KT 300V360 9999 FEW033 BKN039 BKN094 14/14 Q1017 BECMG BKN008
LFRH 250300Z AUTO 33004KT CAVOK 15/14 Q1017 BECMG BKN008
LFRH 250230Z AUTO 35005KT 9999 FEW014 BKN150 BKN180 15/14 Q1017 BECMG BKN008
LFRH 250200Z AUTO 33003KT 9999 SCT002 SCT006 BKN020 15/15 Q1017 BECMG BKN008
LFRH 250130Z AUTO 00000KT 1300 1200 R25/1400U R07/1700U BR VV/// 16/15 Q1017 BECMG 34010KT 9999 NSW BKN008  
LFRH 250100Z AUTO 23004KT 1200 1000 R25/1800D R07/1500D BR VV/// 15/15 Q1017 BECMG 34010KT 9999 NSW BKN008  
LFRH 250030Z AUTO 22005KT 1900 BR VV/// 15/15 Q1017 BECMG 34010KT 9999 NSW BKN008   
LFRH 250000Z AUTO 22007KT 190V250 2600 BR VV/// 16/15 Q1017 TEMPO OVC005 BECMG 9999 NSW 
LFRH 242330Z AUTO 22008KT 7000 OVC002/// ///TCU 16/15 Q1018 TEMPO OVC005
LFRH 242300Z AUTO 22010KT 9999 -RA OVC004/// ///TCU 16/15 Q1018 BECMG 4000 BR VV/// 
LFRH 242230Z AUTO 22010KT 9999 BKN004/// OVC008/// ///TCU 16/15 Q1018 BECMG 4000 BR VV///   
LFRH 242200Z AUTO 21011KT 9999 OVC004 16/15 Q1018 BECMG 4000 BR VV///   
LFRH 242130Z AUTO 21010KT 9999 OVC003 16/15 Q1018 BECMG 4000 BR VV///